Whitchurch, United Kingdom
Current Conditions -  °F | °C
As of 9:50 AM on Wednesday 22 Oct 2014 (Local Time) from EGVP Reporting Station
Clear Clear  
Wind Chill: 52°   Ceiling: Unl
Heat Index: 52°   Visibility: 6mi
Dew Point: 41°   Wind: 10mph
Humidity: 67%   Direction: 280°W
Pressure: 30.33"   Gusts: NA
Location:  51.23°N, 1.34°W
Report Text: EGVP 220850Z 28009KT CAVOK 11/05 Q1027 BLU NOSIG
Loading
Personal Weather Stations






























Interactive Weather Map
Tropical Storm Tracking
New forecast layout! Learn more

10-Day Weather Forecast

Advertisements
Track Severe Weather on mobile